createdAt,value
2018-07-06T00:03:05.431Z,19.8
2018-07-06T00:13:04.665Z,19.8
2018-07-06T00:23:03.897Z,19.6
2018-07-06T00:33:03.178Z,19.5
2018-07-06T00:43:02.360Z,19.4
2018-07-06T00:53:01.594Z,19.5
2018-07-06T01:03:00.825Z,19.4
2018-07-06T01:13:00.059Z,19.4
2018-07-06T01:22:59.346Z,19.3
2018-07-06T01:32:58.546Z,19.2
2018-07-06T01:42:57.753Z,19.2
2018-07-06T01:52:56.985Z,19.1
2018-07-06T02:02:56.218Z,18.9
2018-07-06T02:12:55.452Z,18.9
2018-07-06T02:22:54.682Z,18.9
2018-07-06T02:32:53.913Z,18.9
2018-07-06T02:42:53.143Z,18.8
2018-07-06T02:52:52.381Z,18.9
2018-07-06T03:02:51.618Z,18.8
2018-07-06T03:12:50.839Z,18.8
2018-07-06T03:22:50.074Z,18.8
2018-07-06T03:32:49.305Z,19.1
2018-07-06T03:42:48.539Z,19.4
2018-07-06T03:52:47.824Z,19.9
2018-07-06T04:02:47.008Z,20.3
2018-07-06T04:12:46.244Z,20.7
2018-07-06T04:22:45.533Z,21.2
2018-07-06T04:32:44.712Z,21.8
2018-07-06T04:42:43.945Z,22.4
2018-07-06T04:52:43.179Z,23.1
2018-07-06T05:02:42.412Z,23.6
2018-07-06T05:12:41.646Z,24.2
2018-07-06T05:22:40.935Z,24.8
2018-07-06T05:32:40.113Z,25.3
2018-07-06T05:42:39.349Z,25.8
2018-07-06T05:52:38.577Z,26.4
2018-07-06T06:02:37.814Z,27.1
2018-07-06T06:12:37.043Z,27.5
2018-07-06T06:22:36.277Z,28.1
2018-07-06T06:32:35.507Z,28.6
2018-07-06T06:42:34.738Z,29.1
2018-07-06T06:52:33.972Z,29.6
2018-07-06T07:02:33.204Z,30.1
2018-07-06T07:12:32.438Z,30.9
2018-07-06T07:22:31.672Z,31.3
2018-07-06T07:32:30.903Z,31.8
2018-07-06T07:42:30.137Z,32.5
2018-07-06T07:52:29.369Z,32.7
2018-07-06T08:02:28.603Z,33
2018-07-06T08:12:27.844Z,33.2
2018-07-06T08:22:27.067Z,32.9
2018-07-06T08:32:26.305Z,32.8
2018-07-06T08:42:25.533Z,32.8
2018-07-06T08:52:24.772Z,33.3
2018-07-06T09:02:24.042Z,33.2
2018-07-06T09:12:23.223Z,33.3
2018-07-06T09:22:22.463Z,33.2
2018-07-06T09:32:21.691Z,33.1
2018-07-06T09:42:20.923Z,33.3
2018-07-06T09:52:20.156Z,33.1
2018-07-06T10:02:19.391Z,33.3
2018-07-06T10:12:18.629Z,33.5
2018-07-06T10:22:17.863Z,33.6
2018-07-06T10:32:17.096Z,33.7
2018-07-06T10:42:16.333Z,33.3
2018-07-06T10:52:15.566Z,32.8
2018-07-06T11:02:14.800Z,31.9
2018-07-06T11:12:14.037Z,31.4
2018-07-06T11:22:13.270Z,31.2
2018-07-06T11:32:12.532Z,31.1
2018-07-06T11:42:11.741Z,31.4
2018-07-06T11:52:10.972Z,31.6
2018-07-06T12:02:10.207Z,31.7
2018-07-06T12:12:09.439Z,31.8
2018-07-06T12:22:08.725Z,31.4
2018-07-06T12:32:07.907Z,31
2018-07-06T12:42:07.142Z,30.9
2018-07-06T12:52:06.374Z,30.6
2018-07-06T13:02:05.610Z,30.3
2018-07-06T13:12:04.849Z,30
2018-07-06T13:22:04.076Z,29.8
2018-07-06T13:32:03.311Z,29.7
2018-07-06T13:42:02.547Z,29.8
2018-07-06T13:52:01.783Z,29.8
2018-07-06T14:02:01.013Z,29.8
2018-07-06T14:12:00.280Z,29.2
2018-07-06T14:21:59.480Z,28.7
2018-07-06T14:31:58.715Z,28.1
2018-07-06T14:41:57.952Z,27.9
2018-07-06T14:51:57.184Z,27.7
2018-07-06T15:01:56.426Z,27.4
2018-07-06T15:11:55.654Z,27.4
2018-07-06T15:21:54.892Z,27
2018-07-06T15:31:54.129Z,26.4
2018-07-06T15:41:53.360Z,26.1
2018-07-06T15:51:52.597Z,25.7
2018-07-06T16:01:51.834Z,25.4
2018-07-06T16:11:51.080Z,25.4
2018-07-06T16:21:50.312Z,25.4
2018-07-06T16:31:49.553Z,25.5
2018-07-06T16:41:48.792Z,25.4
2018-07-06T16:51:48.024Z,25.4
2018-07-06T17:01:47.261Z,25.4
2018-07-06T17:11:46.499Z,25.4
2018-07-06T17:21:45.739Z,25.3
2018-07-06T17:31:44.971Z,25.1
2018-07-06T17:41:44.208Z,25.1
2018-07-06T17:51:43.446Z,24.9
2018-07-06T18:01:42.683Z,24.8
2018-07-06T18:11:41.921Z,24.6
2018-07-06T18:21:41.211Z,24.5
2018-07-06T18:31:40.398Z,24.4
2018-07-06T18:41:39.637Z,24.3
2018-07-06T18:51:38.924Z,24.1
2018-07-06T19:01:38.126Z,23.8
2018-07-06T19:11:37.351Z,23.6
2018-07-06T19:21:36.592Z,23.6
2018-07-06T19:31:35.829Z,23.4
2018-07-06T19:41:35.073Z,23.3
2018-07-06T19:51:34.306Z,23.1
2018-07-06T20:01:33.562Z,23
2018-07-06T20:11:32.840Z,22.9
2018-07-06T20:21:32.023Z,22.9
2018-07-06T20:31:31.257Z,22.8
2018-07-06T20:41:30.502Z,22.8
2018-07-06T20:51:29.732Z,22.8
2018-07-06T21:01:28.973Z,22.8
2018-07-06T21:11:28.208Z,22.8
2018-07-06T21:21:27.440Z,22.9
2018-07-06T21:31:26.678Z,22.8
2018-07-06T21:41:25.912Z,22.8
2018-07-06T21:51:25.149Z,22.8
2018-07-06T22:01:24.383Z,22.6
2018-07-06T22:11:23.653Z,22.6
2018-07-06T22:21:22.857Z,22.6
2018-07-06T22:31:22.092Z,22.7
2018-07-06T22:41:21.328Z,22.7
2018-07-06T22:51:20.563Z,22.5
2018-07-06T23:01:19.799Z,22.3
2018-07-06T23:11:19.042Z,22.2
2018-07-06T23:21:18.272Z,22.1
2018-07-06T23:31:17.513Z,22
2018-07-06T23:41:16.745Z,21.9
2018-07-06T23:51:15.983Z,21.9
